sensor_id;sensor_type;location;lat;lon;timestamp;temperature;humidity
40952;DHT22;26682;51.660;19.338;2024-03-08T00:01:47;-2.80;99.90
40952;DHT22;26682;51.660;19.338;2024-03-08T00:04:30;-2.80;99.90
40952;DHT22;26682;51.660;19.338;2024-03-08T00:07:12;-2.80;99.90
40952;DHT22;26682;51.660;19.338;2024-03-08T00:09:55;-2.90;99.90
40952;DHT22;26682;51.660;19.338;2024-03-08T00:12:42;-2.90;99.90
40952;DHT22;26682;51.660;19.338;2024-03-08T00:15:24;-2.90;99.90
40952;DHT22;26682;51.660;19.338;2024-03-08T00:18:06;-2.90;99.90
40952;DHT22;26682;51.660;19.338;2024-03-08T00:20:49;-3.00;99.90
40952;DHT22;26682;51.660;19.338;2024-03-08T00:23:33;-3.00;99.90
40952;DHT22;26682;51.660;19.338;2024-03-08T00:26:15;-3.00;99.90
40952;DHT22;26682;51.660;19.338;2024-03-08T00:28:58;-3.00;99.90
40952;DHT22;26682;51.660;19.338;2024-03-08T00:31:40;-3.00;99.90
40952;DHT22;26682;51.660;19.338;2024-03-08T00:34:22;-3.00;99.90
40952;DHT22;26682;51.660;19.338;2024-03-08T00:37:05;-3.00;99.90
40952;DHT22;26682;51.660;19.338;2024-03-08T00:39:48;-3.00;99.90
40952;DHT22;26682;51.660;19.338;2024-03-08T00:42:32;-3.10;99.90
40952;DHT22;26682;51.660;19.338;2024-03-08T00:45:15;-3.10;99.90
40952;DHT22;26682;51.660;19.338;2024-03-08T00:47:58;-3.10;99.90
40952;DHT22;26682;51.660;19.338;2024-03-08T00:50:40;-3.20;99.90
40952;DHT22;26682;51.660;19.338;2024-03-08T00:53:23;-3.20;99.90
40952;DHT22;26682;51.660;19.338;2024-03-08T00:56:05;-3.20;99.90
40952;DHT22;26682;51.660;19.338;2024-03-08T00:58:47;-3.20;99.90
40952;DHT22;26682;51.660;19.338;2024-03-08T01:01:30;-3.20;99.90
40952;DHT22;26682;51.660;19.338;2024-03-08T01:04:12;-3.20;99.90
40952;DHT22;26682;51.660;19.338;2024-03-08T01:06:58;-3.20;99.90
40952;DHT22;26682;51.660;19.338;2024-03-08T01:09:41;-3.20;99.90
40952;DHT22;26682;51.660;19.338;2024-03-08T01:12:23;-3.30;99.90
40952;DHT22;26682;51.660;19.338;2024-03-08T01:15:06;-3.30;99.90
40952;DHT22;26682;51.660;19.338;2024-03-08T01:17:48;-3.20;99.90
40952;DHT22;26682;51.660;19.338;2024-03-08T01:20:31;-3.20;99.90
40952;DHT22;26682;51.660;19.338;2024-03-08T01:23:13;-3.20;99.90
40952;DHT22;26682;51.660;19.338;2024-03-08T01:25:56;-3.20;99.90
40952;DHT22;26682;51.660;19.338;2024-03-08T01:28:39;-3.30;99.90
40952;DHT22;26682;51.660;19.338;2024-03-08T01:31:21;-3.30;99.90
40952;DHT22;26682;51.660;19.338;2024-03-08T01:34:04;-3.30;99.90
40952;DHT22;26682;51.660;19.338;2024-03-08T01:36:47;-3.30;99.90
40952;DHT22;26682;51.660;19.338;2024-03-08T01:39:29;-3.30;99.90
40952;DHT22;26682;51.660;19.338;2024-03-08T01:42:11;-3.40;99.90
40952;DHT22;26682;51.660;19.338;2024-03-08T01:44:57;-3.40;99.90
40952;DHT22;26682;51.660;19.338;2024-03-08T01:47:39;-3.50;99.90
40952;DHT22;26682;51.660;19.338;2024-03-08T01:50:22;-3.50;99.90
40952;DHT22;26682;51.660;19.338;2024-03-08T01:53:06;-3.50;99.90
40952;DHT22;26682;51.660;19.338;2024-03-08T01:55:49;-3.60;99.90
40952;DHT22;26682;51.660;19.338;2024-03-08T01:58:32;-3.60;1.00
40952;DHT22;26682;51.660;19.338;2024-03-08T02:01:15;-3.50;1.00
40952;DHT22;26682;51.660;19.338;2024-03-08T02:03:58;-3.60;1.00
40952;DHT22;26682;51.660;19.338;2024-03-08T02:06:40;-3.60;1.00
40952;DHT22;26682;51.660;19.338;2024-03-08T02:09:23;-3.60;1.00
40952;DHT22;26682;51.660;19.338;2024-03-08T02:12:07;-3.60;1.00
40952;DHT22;26682;51.660;19.338;2024-03-08T02:14:53;-3.60;1.00
40952;DHT22;26682;51.660;19.338;2024-03-08T02:17:36;-3.60;1.00
40952;DHT22;26682;51.660;19.338;2024-03-08T02:20:18;-3.60;1.00
40952;DHT22;26682;51.660;19.338;2024-03-08T02:23:02;-3.70;1.00
40952;DHT22;26682;51.660;19.338;2024-03-08T02:25:44;-3.70;1.00
40952;DHT22;26682;51.660;19.338;2024-03-08T02:28:27;-3.70;1.00
40952;DHT22;26682;51.660;19.338;2024-03-08T02:31:10;-3.80;9.70
40952;DHT22;26682;51.660;19.338;2024-03-08T02:33:53;-3.80;74.40
40952;DHT22;26682;51.660;19.338;2024-03-08T02:36:36;-3.80;79.40
40952;DHT22;26682;51.660;19.338;2024-03-08T02:39:19;-3.80;99.90
40952;DHT22;26682;51.660;19.338;2024-03-08T02:42:02;-3.80;99.90
40952;DHT22;26682;51.660;19.338;2024-03-08T02:44:44;-3.80;99.90
40952;DHT22;26682;51.660;19.338;2024-03-08T02:47:27;-3.70;99.90
40952;DHT22;26682;51.660;19.338;2024-03-08T02:50:11;-3.70;99.90
40952;DHT22;26682;51.660;19.338;2024-03-08T02:52:54;-3.80;99.90
40952;DHT22;26682;51.660;19.338;2024-03-08T02:55:40;-3.80;99.90
40952;DHT22;26682;51.660;19.338;2024-03-08T02:58:23;-3.80;99.90
40952;DHT22;26682;51.660;19.338;2024-03-08T03:01:06;-3.90;99.90
40952;DHT22;26682;51.660;19.338;2024-03-08T03:03:49;-3.90;99.40
40952;DHT22;26682;51.660;19.338;2024-03-08T03:06:31;-3.90;99.80
40952;DHT22;26682;51.660;19.338;2024-03-08T03:09:16;-3.90;99.90
40952;DHT22;26682;51.660;19.338;2024-03-08T03:11:59;-3.90;99.90
40952;DHT22;26682;51.660;19.338;2024-03-08T03:14:42;-3.90;99.90
40952;DHT22;26682;51.660;19.338;2024-03-08T03:17:24;-3.90;99.90
40952;DHT22;26682;51.660;19.338;2024-03-08T03:20:08;-3.90;99.90
40952;DHT22;26682;51.660;19.338;2024-03-08T03:22:54;-3.90;99.90
40952;DHT22;26682;51.660;19.338;2024-03-08T03:25:39;-3.90;99.90
40952;DHT22;26682;51.660;19.338;2024-03-08T03:28:23;-4.00;99.90
40952;DHT22;26682;51.660;19.338;2024-03-08T03:31:07;-4.00;99.90
40952;DHT22;26682;51.660;19.338;2024-03-08T03:33:51;-4.00;99.90
40952;DHT22;26682;51.660;19.338;2024-03-08T03:36:34;-4.00;99.90
40952;DHT22;26682;51.660;19.338;2024-03-08T03:39:17;-4.10;99.90
40952;DHT22;26682;51.660;19.338;2024-03-08T03:42:02;-4.10;99.90
40952;DHT22;26682;51.660;19.338;2024-03-08T03:44:48;-4.10;99.90
40952;DHT22;26682;51.660;19.338;2024-03-08T03:47:31;-4.10;99.90
40952;DHT22;26682;51.660;19.338;2024-03-08T03:50:13;-4.10;99.90
40952;DHT22;26682;51.660;19.338;2024-03-08T03:52:56;-4.10;99.90
40952;DHT22;26682;51.660;19.338;2024-03-08T03:55:39;-4.10;99.90
40952;DHT22;26682;51.660;19.338;2024-03-08T03:58:23;-4.10;99.90
40952;DHT22;26682;51.660;19.338;2024-03-08T04:01:05;-4.20;99.90
40952;DHT22;26682;51.660;19.338;2024-03-08T04:03:48;-4.20;99.90
40952;DHT22;26682;51.660;19.338;2024-03-08T04:06:30;-4.20;99.90
40952;DHT22;26682;51.660;19.338;2024-03-08T04:09:13;-4.20;99.90
40952;DHT22;26682;51.660;19.338;2024-03-08T04:11:55;-4.20;99.90
40952;DHT22;26682;51.660;19.338;2024-03-08T04:14:42;-4.20;99.90
40952;DHT22;26682;51.660;19.338;2024-03-08T04:17:24;-4.20;99.90
40952;DHT22;26682;51.660;19.338;2024-03-08T04:20:07;-4.20;99.90
40952;DHT22;26682;51.660;19.338;2024-03-08T04:22:52;-4.20;99.90
40952;DHT22;26682;51.660;19.338;2024-03-08T04:25:34;-4.30;99.90
40952;DHT22;26682;51.660;19.338;2024-03-08T04:28:17;-4.30;99.90
40952;DHT22;26682;51.660;19.338;2024-03-08T04:31:00;-4.30;99.90
40952;DHT22;26682;51.660;19.338;2024-03-08T04:33:45;-4.30;99.90
40952;DHT22;26682;51.660;19.338;2024-03-08T04:36:27;-4.30;99.90
40952;DHT22;26682;51.660;19.338;2024-03-08T04:39:11;-4.30;99.90
40952;DHT22;26682;51.660;19.338;2024-03-08T04:41:58;-4.30;99.90
40952;DHT22;26682;51.660;19.338;2024-03-08T04:44:44;-4.30;99.90
40952;DHT22;26682;51.660;19.338;2024-03-08T04:47:27;-4.30;99.90
40952;DHT22;26682;51.660;19.338;2024-03-08T04:50:09;-4.30;99.90
40952;DHT22;26682;51.660;19.338;2024-03-08T04:52:52;-4.40;99.90
40952;DHT22;26682;51.660;19.338;2024-03-08T04:55:34;-4.30;99.90
40952;DHT22;26682;51.660;19.338;2024-03-08T04:58:17;-4.40;99.90
40952;DHT22;26682;51.660;19.338;2024-03-08T05:00:59;-4.30;99.90
40952;DHT22;26682;51.660;19.338;2024-03-08T05:03:42;-4.30;99.90
40952;DHT22;26682;51.660;19.338;2024-03-08T05:06:24;-4.30;99.90
40952;DHT22;26682;51.660;19.338;2024-03-08T05:09:07;-4.30;99.90
40952;DHT22;26682;51.660;19.338;2024-03-08T05:11:56;-4.30;99.90
40952;DHT22;26682;51.660;19.338;2024-03-08T05:14:41;-4.30;99.90
40952;DHT22;26682;51.660;19.338;2024-03-08T05:17:23;-4.30;99.90
40952;DHT22;26682;51.660;19.338;2024-03-08T05:20:06;-4.20;99.90
40952;DHT22;26682;51.660;19.338;2024-03-08T05:22:54;-4.20;99.90
40952;DHT22;26682;51.660;19.338;2024-03-08T05:25:37;-4.20;99.90
40952;DHT22;26682;51.660;19.338;2024-03-08T05:28:19;-4.20;99.90
40952;DHT22;26682;51.660;19.338;2024-03-08T05:31:02;-4.10;99.90
40952;DHT22;26682;51.660;19.338;2024-03-08T05:33:45;-4.10;99.90
40952;DHT22;26682;51.660;19.338;2024-03-08T05:36:28;-4.10;99.90
40952;DHT22;26682;51.660;19.338;2024-03-08T05:39:11;-4.00;99.90
40952;DHT22;26682;51.660;19.338;2024-03-08T05:41:54;-3.90;1.00
40952;DHT22;26682;51.660;19.338;2024-03-08T05:44:37;-3.80;1.00
40952;DHT22;26682;51.660;19.338;2024-03-08T05:47:20;-3.80;1.00
40952;DHT22;26682;51.660;19.338;2024-03-08T05:50:02;-3.70;1.00
40952;DHT22;26682;51.660;19.338;2024-03-08T05:52:45;-3.60;1.00
40952;DHT22;26682;51.660;19.338;2024-03-08T05:55:29;-3.50;1.00
40952;DHT22;26682;51.660;19.338;2024-03-08T05:58:12;-3.30;67.30
40952;DHT22;26682;51.660;19.338;2024-03-08T06:00:54;-3.10;99.90
40952;DHT22;26682;51.660;19.338;2024-03-08T06:03:37;-2.90;99.90
40952;DHT22;26682;51.660;19.338;2024-03-08T06:06:26;-2.70;99.90
40952;DHT22;26682;51.660;19.338;2024-03-08T06:09:08;-2.40;99.90
40952;DHT22;26682;51.660;19.338;2024-03-08T06:11:54;-2.10;99.90
40952;DHT22;26682;51.660;19.338;2024-03-08T06:14:37;-1.80;99.90
40952;DHT22;26682;51.660;19.338;2024-03-08T06:17:20;-1.50;99.90
40952;DHT22;26682;51.660;19.338;2024-03-08T06:20:02;-1.20;33.70
40952;DHT22;26682;51.660;19.338;2024-03-08T06:22:46;-1.10;1.00
40952;DHT22;26682;51.660;19.338;2024-03-08T06:25:28;-0.90;99.90
40952;DHT22;26682;51.660;19.338;2024-03-08T06:28:10;-0.70;1.00
40952;DHT22;26682;51.660;19.338;2024-03-08T06:30:53;-0.60;99.90
40952;DHT22;26682;51.660;19.338;2024-03-08T06:33:36;-0.40;1.00
40952;DHT22;26682;51.660;19.338;2024-03-08T06:36:18;-0.20;99.90
40952;DHT22;26682;51.660;19.338;2024-03-08T06:39:03;0.00;99.90
40952;DHT22;26682;51.660;19.338;2024-03-08T06:41:52;0.30;1.00
40952;DHT22;26682;51.660;19.338;2024-03-08T06:44:34;0.40;1.00
40952;DHT22;26682;51.660;19.338;2024-03-08T06:47:17;0.60;1.00
40952;DHT22;26682;51.660;19.338;2024-03-08T06:49:59;0.80;1.00
40952;DHT22;26682;51.660;19.338;2024-03-08T06:52:42;0.90;99.90
40952;DHT22;26682;51.660;19.338;2024-03-08T06:55:26;1.10;99.90
40952;DHT22;26682;51.660;19.338;2024-03-08T06:58:08;1.30;1.00
40952;DHT22;26682;51.660;19.338;2024-03-08T07:00:52;1.40;99.90
40952;DHT22;26682;51.660;19.338;2024-03-08T07:03:35;1.60;99.90
40952;DHT22;26682;51.660;19.338;2024-03-08T07:06:18;1.70;1.00
40952;DHT22;26682;51.660;19.338;2024-03-08T07:09:01;1.80;1.00
40952;DHT22;26682;51.660;19.338;2024-03-08T07:11:44;2.00;1.00
40952;DHT22;26682;51.660;19.338;2024-03-08T07:14:27;2.20;99.90
40952;DHT22;26682;51.660;19.338;2024-03-08T07:17:12;2.30;99.90
40952;DHT22;26682;51.660;19.338;2024-03-08T07:19:54;2.40;99.90
40952;DHT22;26682;51.660;19.338;2024-03-08T07:22:37;2.50;99.90
40952;DHT22;26682;51.660;19.338;2024-03-08T07:25:20;2.60;99.90
40952;DHT22;26682;51.660;19.338;2024-03-08T07:28:04;2.70;1.00
40952;DHT22;26682;51.660;19.338;2024-03-08T07:30:51;2.80;1.00
40952;DHT22;26682;51.660;19.338;2024-03-08T07:33:33;3.00;1.00
40952;DHT22;26682;51.660;19.338;2024-03-08T07:36:16;3.10;1.00
40952;DHT22;26682;51.660;19.338;2024-03-08T07:38:59;3.20;1.00
40952;DHT22;26682;51.660;19.338;2024-03-08T07:41:42;3.30;1.00
40952;DHT22;26682;51.660;19.338;2024-03-08T07:44:24;3.30;99.90
40952;DHT22;26682;51.660;19.338;2024-03-08T07:47:07;3.40;99.90
40952;DHT22;26682;51.660;19.338;2024-03-08T07:49:51;3.50;99.90
40952;DHT22;26682;51.660;19.338;2024-03-08T07:52:34;3.60;99.90
40952;DHT22;26682;51.660;19.338;2024-03-08T07:55:18;3.60;99.90
40952;DHT22;26682;51.660;19.338;2024-03-08T07:58:02;3.70;99.90
40952;DHT22;26682;51.660;19.338;2024-03-08T08:00:45;3.90;99.90
40952;DHT22;26682;51.660;19.338;2024-03-08T08:03:27;4.00;99.90
40952;DHT22;26682;51.660;19.338;2024-03-08T08:06:09;4.00;99.90
40952;DHT22;26682;51.660;19.338;2024-03-08T08:08:53;4.10;99.90
40952;DHT22;26682;51.660;19.338;2024-03-08T08:11:36;4.00;99.90
40952;DHT22;26682;51.660;19.338;2024-03-08T08:14:19;4.10;99.90
40952;DHT22;26682;51.660;19.338;2024-03-08T08:17:03;4.30;99.90
40952;DHT22;26682;51.660;19.338;2024-03-08T08:19:47;4.40;99.90
40952;DHT22;26682;51.660;19.338;2024-03-08T08:22:29;4.40;99.90
40952;DHT22;26682;51.660;19.338;2024-03-08T08:25:12;4.30;99.90
40952;DHT22;26682;51.660;19.338;2024-03-08T08:27:55;4.50;99.90
40952;DHT22;26682;51.660;19.338;2024-03-08T08:30:38;4.60;99.90
40952;DHT22;26682;51.660;19.338;2024-03-08T08:33:20;4.40;99.90
40952;DHT22;26682;51.660;19.338;2024-03-08T08:36:03;4.30;99.90
40952;DHT22;26682;51.660;19.338;2024-03-08T08:38:46;4.30;99.90
40952;DHT22;26682;51.660;19.338;2024-03-08T08:41:29;4.40;99.90
40952;DHT22;26682;51.660;19.338;2024-03-08T08:44:11;4.50;99.90
40952;DHT22;26682;51.660;19.338;2024-03-08T08:46:58;4.30;99.90
40952;DHT22;26682;51.660;19.338;2024-03-08T08:49:53;4.40;99.90
40952;DHT22;26682;51.660;19.338;2024-03-08T08:52:37;4.40;99.90
40952;DHT22;26682;51.660;19.338;2024-03-08T08:55:22;4.60;99.90
40952;DHT22;26682;51.660;19.338;2024-03-08T08:58:08;4.70;99.90
40952;DHT22;26682;51.660;19.338;2024-03-08T09:00:50;4.50;99.90
40952;DHT22;26682;51.660;19.338;2024-03-08T09:03:34;4.70;99.90
40952;DHT22;26682;51.660;19.338;2024-03-08T09:06:16;4.90;99.90
40952;DHT22;26682;51.660;19.338;2024-03-08T09:09:00;4.90;99.90
40952;DHT22;26682;51.660;19.338;2024-03-08T09:11:46;4.80;99.90
40952;DHT22;26682;51.660;19.338;2024-03-08T09:14:29;4.90;99.90
40952;DHT22;26682;51.660;19.338;2024-03-08T09:17:11;4.70;99.90
40952;DHT22;26682;51.660;19.338;2024-03-08T09:19:54;4.70;99.90
40952;DHT22;26682;51.660;19.338;2024-03-08T09:22:36;4.90;99.90
40952;DHT22;26682;51.660;19.338;2024-03-08T09:25:19;4.90;99.90
40952;DHT22;26682;51.660;19.338;2024-03-08T09:28:02;5.00;99.90
40952;DHT22;26682;51.660;19.338;2024-03-08T09:30:44;5.00;99.90
40952;DHT22;26682;51.660;19.338;2024-03-08T09:33:42;5.00;99.90
40952;DHT22;26682;51.660;19.338;2024-03-08T09:36:24;4.90;99.90
40952;DHT22;26682;51.660;19.338;2024-03-08T09:39:07;4.90;99.90
40952;DHT22;26682;51.660;19.338;2024-03-08T09:41:50;5.00;99.90
40952;DHT22;26682;51.660;19.338;2024-03-08T09:44:32;5.20;99.90
40952;DHT22;26682;51.660;19.338;2024-03-08T09:47:15;5.30;99.90
40952;DHT22;26682;51.660;19.338;2024-03-08T09:49:58;5.30;99.90
40952;DHT22;26682;51.660;19.338;2024-03-08T09:52:42;5.40;99.90
40952;DHT22;26682;51.660;19.338;2024-03-08T09:55:26;5.40;99.90
40952;DHT22;26682;51.660;19.338;2024-03-08T09:58:15;5.40;99.90
40952;DHT22;26682;51.660;19.338;2024-03-08T10:01:18;5.50;99.90
40952;DHT22;26682;51.660;19.338;2024-03-08T10:04:02;5.30;99.90
40952;DHT22;26682;51.660;19.338;2024-03-08T10:06:45;5.40;99.90
40952;DHT22;26682;51.660;19.338;2024-03-08T10:09:29;5.50;99.90
40952;DHT22;26682;51.660;19.338;2024-03-08T10:12:12;5.70;99.90
40952;DHT22;26682;51.660;19.338;2024-03-08T10:14:55;5.70;99.90
40952;DHT22;26682;51.660;19.338;2024-03-08T10:17:38;5.70;99.90
40952;DHT22;26682;51.660;19.338;2024-03-08T10:20:22;5.50;99.90
40952;DHT22;26682;51.660;19.338;2024-03-08T10:23:06;5.40;99.90
40952;DHT22;26682;51.660;19.338;2024-03-08T10:25:53;5.30;99.90
40952;DHT22;26682;51.660;19.338;2024-03-08T10:28:36;5.20;99.90
40952;DHT22;26682;51.660;19.338;2024-03-08T10:31:20;5.20;99.90
40952;DHT22;26682;51.660;19.338;2024-03-08T10:34:03;5.30;99.90
40952;DHT22;26682;51.660;19.338;2024-03-08T10:36:48;5.30;99.90
40952;DHT22;26682;51.660;19.338;2024-03-08T10:39:36;5.50;99.90
40952;DHT22;26682;51.660;19.338;2024-03-08T10:42:23;5.50;99.90
40952;DHT22;26682;51.660;19.338;2024-03-08T10:45:19;5.50;99.90
40952;DHT22;26682;51.660;19.338;2024-03-08T10:51:11;5.20;99.90
40952;DHT22;26682;51.660;19.338;2024-03-08T10:53:56;5.40;99.90
40952;DHT22;26682;51.660;19.338;2024-03-08T10:56:39;5.60;99.90
40952;DHT22;26682;51.660;19.338;2024-03-08T10:59:22;5.60;99.90
40952;DHT22;26682;51.660;19.338;2024-03-08T11:02:06;5.70;99.90
40952;DHT22;26682;51.660;19.338;2024-03-08T11:04:50;5.70;99.90
40952;DHT22;26682;51.660;19.338;2024-03-08T11:07:35;5.60;99.90
40952;DHT22;26682;51.660;19.338;2024-03-08T11:10:19;5.60;99.90
40952;DHT22;26682;51.660;19.338;2024-03-08T11:13:02;5.60;99.90
40952;DHT22;26682;51.660;19.338;2024-03-08T11:15:46;5.60;98.40
40952;DHT22;26682;51.660;19.338;2024-03-08T11:18:32;5.70;99.90
40952;DHT22;26682;51.660;19.338;2024-03-08T11:21:17;5.80;98.30
40952;DHT22;26682;51.660;19.338;2024-03-08T11:24:12;5.90;97.80
40952;DHT22;26682;51.660;19.338;2024-03-08T11:26:57;5.80;95.10
40952;DHT22;26682;51.660;19.338;2024-03-08T11:29:44;5.80;97.40
40952;DHT22;26682;51.660;19.338;2024-03-08T11:32:29;6.00;97.40
40952;DHT22;26682;51.660;19.338;2024-03-08T11:35:23;6.00;97.00
40952;DHT22;26682;51.660;19.338;2024-03-08T11:38:08;6.10;97.00
40952;DHT22;26682;51.660;19.338;2024-03-08T11:40:51;6.20;92.90
40952;DHT22;26682;51.660;19.338;2024-03-08T11:43:34;6.20;95.60
40952;DHT22;26682;51.660;19.338;2024-03-08T11:46:17;6.10;95.10
40952;DHT22;26682;51.660;19.338;2024-03-08T11:49:00;6.00;93.80
40952;DHT22;26682;51.660;19.338;2024-03-08T11:51:43;6.10;96.60
40952;DHT22;26682;51.660;19.338;2024-03-08T11:54:26;6.30;95.70
40952;DHT22;26682;51.660;19.338;2024-03-08T11:57:09;6.30;94.30
40952;DHT22;26682;51.660;19.338;2024-03-08T11:59:53;6.30;92.90
40952;DHT22;26682;51.660;19.338;2024-03-08T12:02:39;6.10;90.30
40952;DHT22;26682;51.660;19.338;2024-03-08T12:05:24;6.00;90.40
40952;DHT22;26682;51.660;19.338;2024-03-08T12:08:07;6.00;89.10
40952;DHT22;26682;51.660;19.338;2024-03-08T12:10:54;6.10;90.90
40952;DHT22;26682;51.660;19.338;2024-03-08T12:13:41;6.20;92.50
40952;DHT22;26682;51.660;19.338;2024-03-08T12:16:24;6.30;93.90
40952;DHT22;26682;51.660;19.338;2024-03-08T12:19:06;6.30;91.70
40952;DHT22;26682;51.660;19.338;2024-03-08T12:21:49;6.20;91.20
40952;DHT22;26682;51.660;19.338;2024-03-08T12:24:31;6.30;53.70
40952;DHT22;26682;51.660;19.338;2024-03-08T12:27:19;6.40;47.40
40952;DHT22;26682;51.660;19.338;2024-03-08T12:30:22;6.30;43.10
40952;DHT22;26682;51.660;19.338;2024-03-08T12:33:05;6.40;44.10
40952;DHT22;26682;51.660;19.338;2024-03-08T12:35:52;6.50;42.90
40952;DHT22;26682;51.660;19.338;2024-03-08T12:38:44;6.60;42.80
40952;DHT22;26682;51.660;19.338;2024-03-08T12:41:29;6.50;37.60
40952;DHT22;26682;51.660;19.338;2024-03-08T12:44:12;6.40;33.70
40952;DHT22;26682;51.660;19.338;2024-03-08T12:46:55;6.50;37.70
40952;DHT22;26682;51.660;19.338;2024-03-08T12:49:39;6.60;35.00
40952;DHT22;26682;51.660;19.338;2024-03-08T12:52:21;6.60;31.20
40952;DHT22;26682;51.660;19.338;2024-03-08T12:55:04;6.60;28.80
40952;DHT22;26682;51.660;19.338;2024-03-08T12:57:49;6.70;27.50
40952;DHT22;26682;51.660;19.338;2024-03-08T13:00:31;6.60;28.00
40952;DHT22;26682;51.660;19.338;2024-03-08T13:03:14;6.60;23.20
40952;DHT22;26682;51.660;19.338;2024-03-08T13:05:56;6.50;28.80
40952;DHT22;26682;51.660;19.338;2024-03-08T13:08:39;6.50;25.50
40952;DHT22;26682;51.660;19.338;2024-03-08T13:11:25;6.60;31.00
40952;DHT22;26682;51.660;19.338;2024-03-08T13:14:07;6.70;27.60
40952;DHT22;26682;51.660;19.338;2024-03-08T13:16:50;6.80;27.30
40952;DHT22;26682;51.660;19.338;2024-03-08T13:19:33;6.80;27.90
40952;DHT22;26682;51.660;19.338;2024-03-08T13:22:16;6.80;11.70
40952;DHT22;26682;51.660;19.338;2024-03-08T13:24:59;6.80;9.30
40952;DHT22;26682;51.660;19.338;2024-03-08T13:27:43;6.80;6.40
40952;DHT22;26682;51.660;19.338;2024-03-08T13:30:25;6.90;7.50
40952;DHT22;26682;51.660;19.338;2024-03-08T13:33:09;6.90;6.10
40952;DHT22;26682;51.660;19.338;2024-03-08T13:35:51;6.90;4.90
40952;DHT22;26682;51.660;19.338;2024-03-08T13:38:35;6.90;4.50
40952;DHT22;26682;51.660;19.338;2024-03-08T13:41:18;6.80;1.10
40952;DHT22;26682;51.660;19.338;2024-03-08T13:44:05;6.80;1.80
40952;DHT22;26682;51.660;19.338;2024-03-08T13:46:48;6.80;3.30
40952;DHT22;26682;51.660;19.338;2024-03-08T13:49:35;6.80;4.20
40952;DHT22;26682;51.660;19.338;2024-03-08T13:52:18;6.90;5.30
40952;DHT22;26682;51.660;19.338;2024-03-08T13:55:01;6.80;5.40
40952;DHT22;26682;51.660;19.338;2024-03-08T13:57:44;6.90;7.10
40952;DHT22;26682;51.660;19.338;2024-03-08T14:00:27;6.90;9.40
40952;DHT22;26682;51.660;19.338;2024-03-08T14:03:15;6.90;8.40
40952;DHT22;26682;51.660;19.338;2024-03-08T14:05:59;6.80;16.60
40952;DHT22;26682;51.660;19.338;2024-03-08T14:08:42;6.80;6.60
40952;DHT22;26682;51.660;19.338;2024-03-08T14:11:25;6.70;6.40
40952;DHT22;26682;51.660;19.338;2024-03-08T14:14:08;6.80;7.90
40952;DHT22;26682;51.660;19.338;2024-03-08T14:16:51;6.70;7.90
40952;DHT22;26682;51.660;19.338;2024-03-08T14:19:34;6.70;8.60
40952;DHT22;26682;51.660;19.338;2024-03-08T14:22:17;6.80;7.40
40952;DHT22;26682;51.660;19.338;2024-03-08T14:25:00;6.70;6.00
40952;DHT22;26682;51.660;19.338;2024-03-08T14:27:47;6.70;5.00
40952;DHT22;26682;51.660;19.338;2024-03-08T14:30:29;6.70;5.20
40952;DHT22;26682;51.660;19.338;2024-03-08T14:33:15;6.70;3.50
40952;DHT22;26682;51.660;19.338;2024-03-08T14:35:58;6.80;3.70
40952;DHT22;26682;51.660;19.338;2024-03-08T14:38:41;6.70;3.80
40952;DHT22;26682;51.660;19.338;2024-03-08T14:41:24;6.70;2.50
40952;DHT22;26682;51.660;19.338;2024-03-08T14:44:06;6.70;1.10
40952;DHT22;26682;51.660;19.338;2024-03-08T14:46:49;6.80;1.00
40952;DHT22;26682;51.660;19.338;2024-03-08T14:49:32;6.70;1.00
40952;DHT22;26682;51.660;19.338;2024-03-08T14:52:18;6.70;1.00
40952;DHT22;26682;51.660;19.338;2024-03-08T14:55:10;6.70;1.10
40952;DHT22;26682;51.660;19.338;2024-03-08T14:57:58;6.60;1.00
40952;DHT22;26682;51.660;19.338;2024-03-08T15:00:41;6.60;1.00
40952;DHT22;26682;51.660;19.338;2024-03-08T15:03:24;6.50;1.00
40952;DHT22;26682;51.660;19.338;2024-03-08T15:06:09;6.50;1.00
40952;DHT22;26682;51.660;19.338;2024-03-08T15:08:52;6.60;1.00
40952;DHT22;26682;51.660;19.338;2024-03-08T15:11:34;6.60;1.00
40952;DHT22;26682;51.660;19.338;2024-03-08T15:14:17;6.60;1.00
40952;DHT22;26682;51.660;19.338;2024-03-08T15:17:01;6.60;1.50
40952;DHT22;26682;51.660;19.338;2024-03-08T15:19:49;6.50;1.00
40952;DHT22;26682;51.660;19.338;2024-03-08T15:22:32;6.60;1.00
40952;DHT22;26682;51.660;19.338;2024-03-08T15:25:14;6.50;1.00
40952;DHT22;26682;51.660;19.338;2024-03-08T15:28:03;6.50;1.00
40952;DHT22;26682;51.660;19.338;2024-03-08T15:30:53;6.40;1.00
40952;DHT22;26682;51.660;19.338;2024-03-08T15:33:39;6.40;1.00
40952;DHT22;26682;51.660;19.338;2024-03-08T15:36:30;6.40;1.00
40952;DHT22;26682;51.660;19.338;2024-03-08T15:39:15;6.30;1.10
40952;DHT22;26682;51.660;19.338;2024-03-08T15:41:57;6.30;1.30
40952;DHT22;26682;51.660;19.338;2024-03-08T15:44:41;6.20;1.70
40952;DHT22;26682;51.660;19.338;2024-03-08T15:47:26;6.20;1.90
40952;DHT22;26682;51.660;19.338;2024-03-08T15:50:10;6.10;2.40
40952;DHT22;26682;51.660;19.338;2024-03-08T15:52:56;6.10;3.40
40952;DHT22;26682;51.660;19.338;2024-03-08T15:55:39;6.00;1.90
40952;DHT22;26682;51.660;19.338;2024-03-08T15:58:23;5.90;3.10
40952;DHT22;26682;51.660;19.338;2024-03-08T16:01:06;5.80;3.90
40952;DHT22;26682;51.660;19.338;2024-03-08T16:03:48;5.80;5.20
40952;DHT22;26682;51.660;19.338;2024-03-08T16:06:32;5.70;5.40
40952;DHT22;26682;51.660;19.338;2024-03-08T16:09:14;5.60;7.20
40952;DHT22;26682;51.660;19.338;2024-03-08T16:11:58;5.60;9.60
40952;DHT22;26682;51.660;19.338;2024-03-08T16:14:40;5.60;7.30
40952;DHT22;26682;51.660;19.338;2024-03-08T16:17:23;5.50;8.00
40952;DHT22;26682;51.660;19.338;2024-03-08T16:20:05;5.40;8.00
40952;DHT22;26682;51.660;19.338;2024-03-08T16:22:53;5.30;9.10
40952;DHT22;26682;51.660;19.338;2024-03-08T16:25:37;5.30;10.30
40952;DHT22;26682;51.660;19.338;2024-03-08T16:28:21;5.20;12.20
40952;DHT22;26682;51.660;19.338;2024-03-08T16:31:10;5.10;13.40
40952;DHT22;26682;51.660;19.338;2024-03-08T16:33:54;4.90;14.10
40952;DHT22;26682;51.660;19.338;2024-03-08T16:36:36;4.80;16.20
40952;DHT22;26682;51.660;19.338;2024-03-08T16:39:22;4.80;16.70
40952;DHT22;26682;51.660;19.338;2024-03-08T16:42:05;4.70;20.00
40952;DHT22;26682;51.660;19.338;2024-03-08T16:44:50;4.60;21.60
40952;DHT22;26682;51.660;19.338;2024-03-08T16:47:32;4.60;24.60
40952;DHT22;26682;51.660;19.338;2024-03-08T16:50:18;4.50;26.00
40952;DHT22;26682;51.660;19.338;2024-03-08T16:53:01;4.40;28.20
40952;DHT22;26682;51.660;19.338;2024-03-08T16:55:43;4.30;29.30
40952;DHT22;26682;51.660;19.338;2024-03-08T16:58:26;4.20;36.00
40952;DHT22;26682;51.660;19.338;2024-03-08T17:01:09;4.10;40.20
40952;DHT22;26682;51.660;19.338;2024-03-08T17:03:52;4.00;50.50
40952;DHT22;26682;51.660;19.338;2024-03-08T17:06:42;3.90;49.70
40952;DHT22;26682;51.660;19.338;2024-03-08T17:09:24;3.90;72.70
40952;DHT22;26682;51.660;19.338;2024-03-08T17:12:09;3.90;64.50
40952;DHT22;26682;51.660;19.338;2024-03-08T17:14:52;3.90;65.10
40952;DHT22;26682;51.660;19.338;2024-03-08T17:17:35;3.80;66.30